Main page
METAR-TAF:

METAR-TAF

Airports :

Moi International Airport

Mombasa, Kenya

latitude: 04-02S, longitude: 039-37E, elevation: 57 m

Current weather observation

The report was made 1 hour and 2 minutes ago, at 18:30 UTC
Wind 4 kt from the Southwest
Temperature 23°C
Humidity 89%
Pressure 1017 hPa
Visibility 10 km or more
Few clouds at a height of 2000 ft

METAR: HKMO 131830Z 22004KT 9999 FEW020 23/21 Q1017 NOSIG

Time: 22:32 (19:32 UTC)

Forecast

The report was made 2 hours and 32 minutes ago, at 17:00 UTC
Forecast valid from 13 at 18 UTC to 14 at 24 UTC
Wind 5 kt from the Southwest
Visibility 10 km or more
Few clouds at a height of 2200 ft
Scattered clouds at a height of 8000 ft
Becoming
from 14 at 09 UTC to 14 at 12 UTC
Wind 15 kt from the South
Scattered clouds at a height of 2500 ft

TAF: HKMO 131700Z 1318/1424 22005KT 9999 FEW022 SCT080 BECMG 1409/1412 17015KT SCT025

Weather observations and forecasts of more than 4000 airports (METAR and TAF reports).

The available stations are represented by yellow and red dots on the map.

Hover mouse over dot to see the name of the station.

Then click to see weather observations and forecasts.

To change the map : click on the green buttons with a black cross to zoom in, on the green button with a dash to zoom out, or on the green arrows for adjacent maps.


METAR-TAF: